sensor_id;sensor_type;location;lat;lon;timestamp;P1;durP1;ratioP1;P2;durP2;ratioP2
22929;SDS011;11630;42.660;23.292;2023-02-26T00:00:51;18.63;;;5.90;;
22929;SDS011;11630;42.660;23.292;2023-02-26T00:03:21;8.27;;;4.63;;
22929;SDS011;11630;42.660;23.292;2023-02-26T00:05:58;15.30;;;5.50;;
22929;SDS011;11630;42.660;23.292;2023-02-26T00:08:27;9.77;;;5.23;;
22929;SDS011;11630;42.660;23.292;2023-02-26T00:10:58;14.33;;;4.30;;
22929;SDS011;11630;42.660;23.292;2023-02-26T00:13:28;15.23;;;5.13;;
22929;SDS011;11630;42.660;23.292;2023-02-26T00:16:00;18.00;;;4.80;;
22929;SDS011;11630;42.660;23.292;2023-02-26T00:18:31;11.33;;;4.63;;
22929;SDS011;11630;42.660;23.292;2023-02-26T00:21:02;15.17;;;4.77;;
22929;SDS011;11630;42.660;23.292;2023-02-26T00:23:32;9.43;;;3.17;;
22929;SDS011;11630;42.660;23.292;2023-02-26T00:26:03;8.23;;;4.77;;
22929;SDS011;11630;42.660;23.292;2023-02-26T00:28:34;17.87;;;5.73;;
22929;SDS011;11630;42.660;23.292;2023-02-26T00:31:05;10.43;;;5.90;;
22929;SDS011;11630;42.660;23.292;2023-02-26T00:33:36;15.40;;;5.07;;
22929;SDS011;11630;42.660;23.292;2023-02-26T00:36:21;13.30;;;4.67;;
22929;SDS011;11630;42.660;23.292;2023-02-26T00:42:07;25.33;;;4.90;;
22929;SDS011;11630;42.660;23.292;2023-02-26T00:44:43;21.97;;;5.87;;
22929;SDS011;11630;42.660;23.292;2023-02-26T00:47:27;10.77;;;6.03;;
22929;SDS011;11630;42.660;23.292;2023-02-26T00:55:28;10.87;;;3.63;;
22929;SDS011;11630;42.660;23.292;2023-02-26T00:57:58;20.87;;;8.13;;
22929;SDS011;11630;42.660;23.292;2023-02-26T01:00:28;5.03;;;3.77;;
22929;SDS011;11630;42.660;23.292;2023-02-26T01:02:59;13.47;;;5.23;;
22929;SDS011;11630;42.660;23.292;2023-02-26T01:05:30;16.90;;;5.27;;
22929;SDS011;11630;42.660;23.292;2023-02-26T01:08:08;10.83;;;4.23;;
22929;SDS011;11630;42.660;23.292;2023-02-26T01:10:45;10.23;;;4.50;;
22929;SDS011;11630;42.660;23.292;2023-02-26T01:13:16;22.93;;;5.20;;
22929;SDS011;11630;42.660;23.292;2023-02-26T01:15:49;15.40;;;4.23;;
22929;SDS011;11630;42.660;23.292;2023-02-26T01:18:25;12.40;;;4.63;;
22929;SDS011;11630;42.660;23.292;2023-02-26T01:20:59;11.20;;;3.70;;
22929;SDS011;11630;42.660;23.292;2023-02-26T01:23:34;11.37;;;3.97;;
22929;SDS011;11630;42.660;23.292;2023-02-26T01:26:13;13.73;;;4.17;;
22929;SDS011;11630;42.660;23.292;2023-02-26T01:28:43;15.83;;;4.57;;
22929;SDS011;11630;42.660;23.292;2023-02-26T01:31:18;15.53;;;4.13;;
22929;SDS011;11630;42.660;23.292;2023-02-26T01:33:47;16.13;;;4.67;;
22929;SDS011;11630;42.660;23.292;2023-02-26T01:36:21;17.47;;;5.47;;
22929;SDS011;11630;42.660;23.292;2023-02-26T01:39:07;19.53;;;4.30;;
22929;SDS011;11630;42.660;23.292;2023-02-26T01:41:48;17.10;;;4.37;;
22929;SDS011;11630;42.660;23.292;2023-02-26T01:47:20;15.33;;;5.20;;
22929;SDS011;11630;42.660;23.292;2023-02-26T01:50:11;15.40;;;4.70;;
22929;SDS011;11630;42.660;23.292;2023-02-26T01:55:30;7.90;;;4.93;;
22929;SDS011;11630;42.660;23.292;2023-02-26T01:58:01;13.53;;;4.10;;
22929;SDS011;11630;42.660;23.292;2023-02-26T02:00:32;10.70;;;4.70;;
22929;SDS011;11630;42.660;23.292;2023-02-26T02:03:03;16.40;;;4.47;;
22929;SDS011;11630;42.660;23.292;2023-02-26T02:05:34;10.47;;;4.70;;
22929;SDS011;11630;42.660;23.292;2023-02-26T02:08:18;15.67;;;5.13;;
22929;SDS011;11630;42.660;23.292;2023-02-26T02:10:50;10.43;;;4.93;;
22929;SDS011;11630;42.660;23.292;2023-02-26T02:13:27;14.87;;;3.97;;
22929;SDS011;11630;42.660;23.292;2023-02-26T02:16:17;9.67;;;4.67;;
22929;SDS011;11630;42.660;23.292;2023-02-26T02:24:35;14.27;;;4.63;;
22929;SDS011;11630;42.660;23.292;2023-02-26T02:27:21;10.80;;;4.83;;
22929;SDS011;11630;42.660;23.292;2023-02-26T02:32:34;7.77;;;3.70;;
22929;SDS011;11630;42.660;23.292;2023-02-26T02:40:34;12.03;;;4.37;;
22929;SDS011;11630;42.660;23.292;2023-02-26T02:45:50;11.47;;;4.97;;
22929;SDS011;11630;42.660;23.292;2023-02-26T02:53:48;12.90;;;4.60;;
22929;SDS011;11630;42.660;23.292;2023-02-26T02:56:20;8.33;;;3.63;;
22929;SDS011;11630;42.660;23.292;2023-02-26T02:58:55;20.43;;;3.33;;
22929;SDS011;11630;42.660;23.292;2023-02-26T03:01:31;11.73;;;4.77;;
22929;SDS011;11630;42.660;23.292;2023-02-26T03:04:10;12.00;;;3.30;;
22929;SDS011;11630;42.660;23.292;2023-02-26T03:06:43;21.03;;;5.20;;
22929;SDS011;11630;42.660;23.292;2023-02-26T03:09:14;15.10;;;4.30;;
22929;SDS011;11630;42.660;23.292;2023-02-26T03:11:45;22.03;;;4.10;;
22929;SDS011;11630;42.660;23.292;2023-02-26T03:14:15;11.43;;;3.60;;
22929;SDS011;11630;42.660;23.292;2023-02-26T03:16:55;12.90;;;4.77;;
22929;SDS011;11630;42.660;23.292;2023-02-26T03:19:28;8.53;;;3.03;;
22929;SDS011;11630;42.660;23.292;2023-02-26T03:22:00;8.43;;;3.20;;
22929;SDS011;11630;42.660;23.292;2023-02-26T03:30:05;13.17;;;3.80;;
22929;SDS011;11630;42.660;23.292;2023-02-26T03:35:19;13.67;;;4.90;;
22929;SDS011;11630;42.660;23.292;2023-02-26T03:37:56;6.43;;;3.40;;
22929;SDS011;11630;42.660;23.292;2023-02-26T03:40:28;13.87;;;4.13;;
22929;SDS011;11630;42.660;23.292;2023-02-26T03:43:14;14.27;;;4.97;;
22929;SDS011;11630;42.660;23.292;2023-02-26T03:45:46;11.60;;;4.23;;
22929;SDS011;11630;42.660;23.292;2023-02-26T03:48:19;8.53;;;3.50;;
22929;SDS011;11630;42.660;23.292;2023-02-26T03:50:51;12.63;;;4.10;;
22929;SDS011;11630;42.660;23.292;2023-02-26T03:53:29;5.83;;;3.70;;
22929;SDS011;11630;42.660;23.292;2023-02-26T03:58:54;10.33;;;4.07;;
22929;SDS011;11630;42.660;23.292;2023-02-26T04:01:26;13.27;;;3.33;;
22929;SDS011;11630;42.660;23.292;2023-02-26T04:06:29;21.43;;;4.13;;
22929;SDS011;11630;42.660;23.292;2023-02-26T04:09:02;20.73;;;4.57;;
22929;SDS011;11630;42.660;23.292;2023-02-26T04:11:39;14.10;;;3.80;;
22929;SDS011;11630;42.660;23.292;2023-02-26T04:14:10;11.67;;;2.93;;
22929;SDS011;11630;42.660;23.292;2023-02-26T04:16:40;9.43;;;3.47;;
22929;SDS011;11630;42.660;23.292;2023-02-26T04:19:11;6.87;;;3.27;;
22929;SDS011;11630;42.660;23.292;2023-02-26T04:21:42;13.97;;;4.73;;
22929;SDS011;11630;42.660;23.292;2023-02-26T04:24:13;17.23;;;5.03;;
22929;SDS011;11630;42.660;23.292;2023-02-26T04:26:43;9.50;;;4.03;;
22929;SDS011;11630;42.660;23.292;2023-02-26T04:29:15;10.30;;;3.07;;
22929;SDS011;11630;42.660;23.292;2023-02-26T04:31:46;19.17;;;3.80;;
22929;SDS011;11630;42.660;23.292;2023-02-26T04:34:16;16.33;;;4.10;;
22929;SDS011;11630;42.660;23.292;2023-02-26T04:36:46;16.87;;;4.33;;
22929;SDS011;11630;42.660;23.292;2023-02-26T04:39:17;13.60;;;3.00;;
22929;SDS011;11630;42.660;23.292;2023-02-26T04:41:48;12.43;;;3.57;;
22929;SDS011;11630;42.660;23.292;2023-02-26T04:44:18;24.40;;;4.53;;
22929;SDS011;11630;42.660;23.292;2023-02-26T04:46:49;13.67;;;3.83;;
22929;SDS011;11630;42.660;23.292;2023-02-26T04:49:20;11.73;;;5.20;;
22929;SDS011;11630;42.660;23.292;2023-02-26T04:51:50;12.33;;;4.37;;
22929;SDS011;11630;42.660;23.292;2023-02-26T04:54:24;19.30;;;3.73;;
22929;SDS011;11630;42.660;23.292;2023-02-26T04:56:54;41.07;;;5.40;;
22929;SDS011;11630;42.660;23.292;2023-02-26T04:59:25;11.47;;;3.87;;
22929;SDS011;11630;42.660;23.292;2023-02-26T05:01:55;10.57;;;3.50;;
22929;SDS011;11630;42.660;23.292;2023-02-26T05:04:27;9.53;;;5.00;;
22929;SDS011;11630;42.660;23.292;2023-02-26T05:06:57;15.37;;;4.00;;
22929;SDS011;11630;42.660;23.292;2023-02-26T05:09:27;11.53;;;4.83;;
22929;SDS011;11630;42.660;23.292;2023-02-26T05:11:57;6.10;;;2.97;;
22929;SDS011;11630;42.660;23.292;2023-02-26T05:14:28;18.07;;;4.07;;
22929;SDS011;11630;42.660;23.292;2023-02-26T05:17:00;19.67;;;4.50;;
22929;SDS011;11630;42.660;23.292;2023-02-26T05:19:30;13.70;;;3.53;;
22929;SDS011;11630;42.660;23.292;2023-02-26T05:22:01;2.77;;;2.13;;
22929;SDS011;11630;42.660;23.292;2023-02-26T05:24:33;15.47;;;3.87;;
22929;SDS011;11630;42.660;23.292;2023-02-26T05:27:03;13.87;;;3.27;;
22929;SDS011;11630;42.660;23.292;2023-02-26T05:29:33;9.53;;;4.53;;
22929;SDS011;11630;42.660;23.292;2023-02-26T05:32:04;10.20;;;3.47;;
22929;SDS011;11630;42.660;23.292;2023-02-26T05:34:34;7.47;;;4.07;;
22929;SDS011;11630;42.660;23.292;2023-02-26T05:37:08;30.30;;;4.93;;
22929;SDS011;11630;42.660;23.292;2023-02-26T05:39:40;16.17;;;4.50;;
22929;SDS011;11630;42.660;23.292;2023-02-26T05:42:13;14.70;;;3.90;;
22929;SDS011;11630;42.660;23.292;2023-02-26T05:44:43;14.57;;;3.23;;
22929;SDS011;11630;42.660;23.292;2023-02-26T05:47:14;18.50;;;3.80;;
22929;SDS011;11630;42.660;23.292;2023-02-26T05:49:45;14.03;;;3.60;;
22929;SDS011;11630;42.660;23.292;2023-02-26T05:52:16;31.30;;;5.27;;
22929;SDS011;11630;42.660;23.292;2023-02-26T05:54:48;17.73;;;4.50;;
22929;SDS011;11630;42.660;23.292;2023-02-26T05:57:19;9.87;;;2.47;;
22929;SDS011;11630;42.660;23.292;2023-02-26T05:59:49;14.03;;;3.60;;
22929;SDS011;11630;42.660;23.292;2023-02-26T06:02:20;26.23;;;4.03;;
22929;SDS011;11630;42.660;23.292;2023-02-26T06:04:52;20.87;;;3.87;;
22929;SDS011;11630;42.660;23.292;2023-02-26T06:07:23;22.07;;;5.63;;
22929;SDS011;11630;42.660;23.292;2023-02-26T06:09:54;14.20;;;3.47;;
22929;SDS011;11630;42.660;23.292;2023-02-26T06:12:25;11.83;;;3.77;;
22929;SDS011;11630;42.660;23.292;2023-02-26T06:14:55;16.40;;;2.57;;
22929;SDS011;11630;42.660;23.292;2023-02-26T06:17:29;16.87;;;4.00;;
22929;SDS011;11630;42.660;23.292;2023-02-26T06:19:58;9.73;;;3.17;;
22929;SDS011;11630;42.660;23.292;2023-02-26T06:22:27;19.77;;;3.53;;
22929;SDS011;11630;42.660;23.292;2023-02-26T06:24:57;18.43;;;4.57;;
22929;SDS011;11630;42.660;23.292;2023-02-26T06:27:28;20.07;;;5.00;;
22929;SDS011;11630;42.660;23.292;2023-02-26T06:29:59;11.93;;;4.30;;
22929;SDS011;11630;42.660;23.292;2023-02-26T06:32:31;9.60;;;4.10;;
22929;SDS011;11630;42.660;23.292;2023-02-26T06:35:01;27.40;;;5.10;;
22929;SDS011;11630;42.660;23.292;2023-02-26T06:37:33;6.33;;;2.63;;
22929;SDS011;11630;42.660;23.292;2023-02-26T06:40:08;14.23;;;3.33;;
22929;SDS011;11630;42.660;23.292;2023-02-26T06:42:39;15.83;;;4.30;;
22929;SDS011;11630;42.660;23.292;2023-02-26T06:45:10;29.43;;;4.83;;
22929;SDS011;11630;42.660;23.292;2023-02-26T06:47:41;12.00;;;3.07;;
22929;SDS011;11630;42.660;23.292;2023-02-26T06:50:12;9.70;;;4.57;;
22929;SDS011;11630;42.660;23.292;2023-02-26T06:52:42;17.50;;;5.70;;
22929;SDS011;11630;42.660;23.292;2023-02-26T06:55:13;33.17;;;5.03;;
22929;SDS011;11630;42.660;23.292;2023-02-26T06:57:43;14.63;;;2.90;;
22929;SDS011;11630;42.660;23.292;2023-02-26T07:00:13;12.30;;;4.30;;
22929;SDS011;11630;42.660;23.292;2023-02-26T07:02:44;29.40;;;4.97;;
22929;SDS011;11630;42.660;23.292;2023-02-26T07:05:14;11.50;;;4.27;;
22929;SDS011;11630;42.660;23.292;2023-02-26T07:07:45;21.43;;;2.87;;
22929;SDS011;11630;42.660;23.292;2023-02-26T07:10:15;18.87;;;4.47;;
22929;SDS011;11630;42.660;23.292;2023-02-26T07:12:47;18.03;;;4.57;;
22929;SDS011;11630;42.660;23.292;2023-02-26T07:15:18;11.53;;;3.67;;
22929;SDS011;11630;42.660;23.292;2023-02-26T07:17:49;12.47;;;3.23;;
22929;SDS011;11630;42.660;23.292;2023-02-26T07:20:19;8.70;;;4.17;;
22929;SDS011;11630;42.660;23.292;2023-02-26T07:22:49;27.63;;;4.83;;
22929;SDS011;11630;42.660;23.292;2023-02-26T07:25:19;19.83;;;4.83;;
22929;SDS011;11630;42.660;23.292;2023-02-26T07:27:54;11.87;;;3.53;;
22929;SDS011;11630;42.660;23.292;2023-02-26T07:30:25;10.13;;;3.60;;
22929;SDS011;11630;42.660;23.292;2023-02-26T07:32:55;13.80;;;4.20;;
22929;SDS011;11630;42.660;23.292;2023-02-26T07:35:25;11.97;;;4.33;;
22929;SDS011;11630;42.660;23.292;2023-02-26T07:37:56;12.43;;;2.83;;
22929;SDS011;11630;42.660;23.292;2023-02-26T07:40:26;30.90;;;5.67;;
22929;SDS011;11630;42.660;23.292;2023-02-26T07:42:58;15.17;;;4.40;;
22929;SDS011;11630;42.660;23.292;2023-02-26T07:45:29;26.03;;;4.20;;
22929;SDS011;11630;42.660;23.292;2023-02-26T07:47:59;13.90;;;4.00;;
22929;SDS011;11630;42.660;23.292;2023-02-26T07:50:30;20.17;;;3.63;;
22929;SDS011;11630;42.660;23.292;2023-02-26T07:53:01;26.50;;;4.53;;
22929;SDS011;11630;42.660;23.292;2023-02-26T07:55:34;17.53;;;4.03;;
22929;SDS011;11630;42.660;23.292;2023-02-26T07:58:05;14.30;;;5.17;;
22929;SDS011;11630;42.660;23.292;2023-02-26T08:00:36;22.87;;;3.80;;
22929;SDS011;11630;42.660;23.292;2023-02-26T08:03:06;19.20;;;4.07;;
22929;SDS011;11630;42.660;23.292;2023-02-26T08:05:37;12.70;;;3.93;;
22929;SDS011;11630;42.660;23.292;2023-02-26T08:08:08;15.93;;;3.90;;
22929;SDS011;11630;42.660;23.292;2023-02-26T08:10:42;20.03;;;4.20;;
22929;SDS011;11630;42.660;23.292;2023-02-26T08:13:15;21.60;;;4.00;;
22929;SDS011;11630;42.660;23.292;2023-02-26T08:15:49;11.10;;;3.83;;
22929;SDS011;11630;42.660;23.292;2023-02-26T08:18:19;19.83;;;3.87;;
22929;SDS011;11630;42.660;23.292;2023-02-26T08:20:50;16.53;;;4.10;;
22929;SDS011;11630;42.660;23.292;2023-02-26T08:23:21;14.37;;;3.67;;
22929;SDS011;11630;42.660;23.292;2023-02-26T08:26:01;10.83;;;3.53;;
22929;SDS011;11630;42.660;23.292;2023-02-26T08:28:31;19.27;;;4.17;;
22929;SDS011;11630;42.660;23.292;2023-02-26T08:31:02;18.17;;;3.90;;
22929;SDS011;11630;42.660;23.292;2023-02-26T08:33:33;16.83;;;3.23;;
22929;SDS011;11630;42.660;23.292;2023-02-26T08:36:04;21.97;;;3.20;;
22929;SDS011;11630;42.660;23.292;2023-02-26T08:38:35;17.90;;;3.83;;
22929;SDS011;11630;42.660;23.292;2023-02-26T08:41:08;13.53;;;4.10;;
22929;SDS011;11630;42.660;23.292;2023-02-26T08:43:39;10.53;;;3.40;;
22929;SDS011;11630;42.660;23.292;2023-02-26T08:46:14;30.50;;;5.33;;
22929;SDS011;11630;42.660;23.292;2023-02-26T08:48:42;20.67;;;3.73;;
22929;SDS011;11630;42.660;23.292;2023-02-26T08:51:13;28.70;;;5.10;;
22929;SDS011;11630;42.660;23.292;2023-02-26T08:53:44;17.57;;;4.07;;
22929;SDS011;11630;42.660;23.292;2023-02-26T08:56:14;9.20;;;2.87;;
22929;SDS011;11630;42.660;23.292;2023-02-26T08:58:45;24.80;;;5.40;;
22929;SDS011;11630;42.660;23.292;2023-02-26T09:01:15;14.00;;;3.90;;
22929;SDS011;11630;42.660;23.292;2023-02-26T09:03:46;13.33;;;3.87;;
22929;SDS011;11630;42.660;23.292;2023-02-26T09:06:17;16.73;;;4.20;;
22929;SDS011;11630;42.660;23.292;2023-02-26T09:08:48;21.27;;;5.00;;
22929;SDS011;11630;42.660;23.292;2023-02-26T09:11:19;21.77;;;5.13;;
22929;SDS011;11630;42.660;23.292;2023-02-26T09:13:50;15.63;;;4.73;;
22929;SDS011;11630;42.660;23.292;2023-02-26T09:16:20;17.67;;;3.37;;
22929;SDS011;11630;42.660;23.292;2023-02-26T09:18:51;20.90;;;3.17;;
22929;SDS011;11630;42.660;23.292;2023-02-26T09:21:22;19.00;;;4.40;;
22929;SDS011;11630;42.660;23.292;2023-02-26T09:23:52;23.30;;;4.63;;
22929;SDS011;11630;42.660;23.292;2023-02-26T09:26:22;17.70;;;4.90;;
22929;SDS011;11630;42.660;23.292;2023-02-26T09:28:52;20.80;;;6.73;;
22929;SDS011;11630;42.660;23.292;2023-02-26T09:31:23;21.57;;;6.50;;
22929;SDS011;11630;42.660;23.292;2023-02-26T09:33:53;16.40;;;5.73;;
22929;SDS011;11630;42.660;23.292;2023-02-26T09:36:24;11.53;;;4.33;;
22929;SDS011;11630;42.660;23.292;2023-02-26T09:38:55;31.30;;;7.20;;
22929;SDS011;11630;42.660;23.292;2023-02-26T09:41:27;19.07;;;5.97;;
22929;SDS011;11630;42.660;23.292;2023-02-26T09:46:52;25.10;;;7.30;;
22929;SDS011;11630;42.660;23.292;2023-02-26T09:49:33;27.00;;;7.97;;
22929;SDS011;11630;42.660;23.292;2023-02-26T09:54:46;34.17;;;6.13;;
22929;SDS011;11630;42.660;23.292;2023-02-26T09:57:31;27.77;;;7.37;;
22929;SDS011;11630;42.660;23.292;2023-02-26T10:00:06;29.97;;;6.80;;
22929;SDS011;11630;42.660;23.292;2023-02-26T10:02:47;30.47;;;7.73;;
22929;SDS011;11630;42.660;23.292;2023-02-26T10:05:21;15.43;;;7.10;;
22929;SDS011;11630;42.660;23.292;2023-02-26T10:07:58;22.93;;;6.27;;
22929;SDS011;11630;42.660;23.292;2023-02-26T10:10:47;15.83;;;4.83;;
22929;SDS011;11630;42.660;23.292;2023-02-26T10:13:50;18.93;;;5.13;;
22929;SDS011;11630;42.660;23.292;2023-02-26T10:16:28;16.43;;;5.10;;
22929;SDS011;11630;42.660;23.292;2023-02-26T10:19:07;23.30;;;6.30;;
22929;SDS011;11630;42.660;23.292;2023-02-26T10:21:37;15.03;;;3.57;;
22929;SDS011;11630;42.660;23.292;2023-02-26T10:24:13;14.07;;;3.77;;
22929;SDS011;11630;42.660;23.292;2023-02-26T10:26:53;15.93;;;4.90;;
22929;SDS011;11630;42.660;23.292;2023-02-26T10:34:56;11.83;;;3.37;;
22929;SDS011;11630;42.660;23.292;2023-02-26T10:37:50;11.03;;;4.37;;
22929;SDS011;11630;42.660;23.292;2023-02-26T10:40:25;12.63;;;4.07;;
22929;SDS011;11630;42.660;23.292;2023-02-26T10:43:27;21.50;;;4.70;;
22929;SDS011;11630;42.660;23.292;2023-02-26T10:48:23;62.73;;;9.57;;
22929;SDS011;11630;42.660;23.292;2023-02-26T10:50:58;14.63;;;3.90;;
22929;SDS011;11630;42.660;23.292;2023-02-26T10:53:29;11.27;;;3.53;;
22929;SDS011;11630;42.660;23.292;2023-02-26T10:56:16;10.63;;;3.60;;
22929;SDS011;11630;42.660;23.292;2023-02-26T10:58:47;19.80;;;5.20;;
22929;SDS011;11630;42.660;23.292;2023-02-26T11:01:20;12.73;;;2.87;;
22929;SDS011;11630;42.660;23.292;2023-02-26T11:04:02;9.27;;;3.03;;
22929;SDS011;11630;42.660;23.292;2023-02-26T11:06:44;19.03;;;4.37;;
22929;SDS011;11630;42.660;23.292;2023-02-26T11:09:30;14.13;;;4.10;;
22929;SDS011;11630;42.660;23.292;2023-02-26T11:12:03;16.57;;;4.47;;
22929;SDS011;11630;42.660;23.292;2023-02-26T11:14:35;10.30;;;3.80;;
22929;SDS011;11630;42.660;23.292;2023-02-26T11:17:15;15.43;;;3.70;;
22929;SDS011;11630;42.660;23.292;2023-02-26T11:19:43;15.20;;;3.80;;
22929;SDS011;11630;42.660;23.292;2023-02-26T11:22:24;14.73;;;4.97;;
22929;SDS011;11630;42.660;23.292;2023-02-26T11:24:55;14.37;;;3.87;;
22929;SDS011;11630;42.660;23.292;2023-02-26T11:27:29;15.00;;;5.40;;
22929;SDS011;11630;42.660;23.292;2023-02-26T11:30:14;21.30;;;4.83;;
22929;SDS011;11630;42.660;23.292;2023-02-26T11:32:48;18.53;;;4.70;;
22929;SDS011;11630;42.660;23.292;2023-02-26T11:35:21;29.67;;;5.77;;
22929;SDS011;11630;42.660;23.292;2023-02-26T11:37:54;8.53;;;4.30;;
22929;SDS011;11630;42.660;23.292;2023-02-26T11:40:36;9.57;;;3.80;;
22929;SDS011;11630;42.660;23.292;2023-02-26T11:43:09;13.33;;;4.73;;
22929;SDS011;11630;42.660;23.292;2023-02-26T11:45:42;14.10;;;5.50;;
22929;SDS011;11630;42.660;23.292;2023-02-26T11:48:17;22.03;;;5.67;;
22929;SDS011;11630;42.660;23.292;2023-02-26T11:50:47;17.77;;;4.67;;
22929;SDS011;11630;42.660;23.292;2023-02-26T11:53:22;25.70;;;6.10;;
22929;SDS011;11630;42.660;23.292;2023-02-26T11:56:09;9.67;;;4.33;;
22929;SDS011;11630;42.660;23.292;2023-02-26T11:58:42;18.50;;;4.83;;
22929;SDS011;11630;42.660;23.292;2023-02-26T12:01:14;9.57;;;4.07;;
22929;SDS011;11630;42.660;23.292;2023-02-26T12:03:47;17.63;;;4.90;;
22929;SDS011;11630;42.660;23.292;2023-02-26T12:06:20;19.80;;;3.87;;
22929;SDS011;11630;42.660;23.292;2023-02-26T12:08:53;20.77;;;5.27;;
22929;SDS011;11630;42.660;23.292;2023-02-26T12:14:31;18.97;;;5.57;;
22929;SDS011;11630;42.660;23.292;2023-02-26T12:25:26;28.17;;;3.57;;
22929;SDS011;11630;42.660;23.292;2023-02-26T12:33:17;20.90;;;5.07;;
22929;SDS011;11630;42.660;23.292;2023-02-26T12:36:49;14.83;;;4.57;;
22929;SDS011;11630;42.660;23.292;2023-02-26T12:38:54;21.10;;;4.90;;
22929;SDS011;11630;42.660;23.292;2023-02-26T12:41:36;34.37;;;5.57;;
22929;SDS011;11630;42.660;23.292;2023-02-26T12:44:11;17.43;;;4.97;;
22929;SDS011;11630;42.660;23.292;2023-02-26T12:46:42;16.33;;;4.90;;
22929;SDS011;11630;42.660;23.292;2023-02-26T12:51:51;18.03;;;4.90;;
22929;SDS011;11630;42.660;23.292;2023-02-26T12:54:30;16.43;;;4.57;;
22929;SDS011;11630;42.660;23.292;2023-02-26T13:05:26;20.80;;;4.93;;
22929;SDS011;11630;42.660;23.292;2023-02-26T13:10:29;21.70;;;4.70;;
22929;SDS011;11630;42.660;23.292;2023-02-26T13:13:29;13.83;;;4.87;;
22929;SDS011;11630;42.660;23.292;2023-02-26T13:19:12;20.90;;;5.57;;
22929;SDS011;11630;42.660;23.292;2023-02-26T13:21:47;21.33;;;7.90;;
22929;SDS011;11630;42.660;23.292;2023-02-26T13:24:22;14.37;;;4.80;;
22929;SDS011;11630;42.660;23.292;2023-02-26T13:26:53;16.33;;;5.70;;
22929;SDS011;11630;42.660;23.292;2023-02-26T13:29:38;27.27;;;5.80;;
22929;SDS011;11630;42.660;23.292;2023-02-26T13:32:13;24.67;;;4.90;;
22929;SDS011;11630;42.660;23.292;2023-02-26T13:34:49;24.20;;;5.17;;
22929;SDS011;11630;42.660;23.292;2023-02-26T13:37:23;17.10;;;6.33;;
22929;SDS011;11630;42.660;23.292;2023-02-26T13:42:49;21.70;;;4.87;;
22929;SDS011;11630;42.660;23.292;2023-02-26T13:51:04;14.63;;;5.10;;
22929;SDS011;11630;42.660;23.292;2023-02-26T13:53:52;18.67;;;5.80;;
22929;SDS011;11630;42.660;23.292;2023-02-26T14:06:53;12.00;;;5.07;;
22929;SDS011;11630;42.660;23.292;2023-02-26T14:09:29;14.73;;;4.63;;
22929;SDS011;11630;42.660;23.292;2023-02-26T14:14:41;18.47;;;5.30;;
22929;SDS011;11630;42.660;23.292;2023-02-26T14:22:22;22.03;;;5.90;;
22929;SDS011;11630;42.660;23.292;2023-02-26T14:25:12;23.43;;;4.87;;
22929;SDS011;11630;42.660;23.292;2023-02-26T14:27:42;35.07;;;7.77;;
22929;SDS011;11630;42.660;23.292;2023-02-26T14:30:27;23.47;;;6.13;;
22929;SDS011;11630;42.660;23.292;2023-02-26T14:35:42;28.37;;;6.43;;
22929;SDS011;11630;42.660;23.292;2023-02-26T14:38:19;22.37;;;5.70;;
22929;SDS011;11630;42.660;23.292;2023-02-26T14:41:13;33.60;;;6.63;;
22929;SDS011;11630;42.660;23.292;2023-02-26T14:43:38;34.03;;;6.77;;
22929;SDS011;11630;42.660;23.292;2023-02-26T14:46:12;21.73;;;5.23;;
22929;SDS011;11630;42.660;23.292;2023-02-26T14:48:43;20.33;;;5.57;;
22929;SDS011;11630;42.660;23.292;2023-02-26T14:51:21;41.87;;;7.57;;
22929;SDS011;11630;42.660;23.292;2023-02-26T14:54:09;29.27;;;7.33;;
22929;SDS011;11630;42.660;23.292;2023-02-26T15:02:20;30.30;;;6.93;;
22929;SDS011;11630;42.660;23.292;2023-02-26T15:25:18;31.93;;;6.33;;
22929;SDS011;11630;42.660;23.292;2023-02-26T15:27:56;30.17;;;6.70;;
22929;SDS011;11630;42.660;23.292;2023-02-26T15:30:29;28.00;;;6.03;;
22929;SDS011;11630;42.660;23.292;2023-02-26T15:33:11;24.47;;;6.10;;
22929;SDS011;11630;42.660;23.292;2023-02-26T15:35:38;27.60;;;6.30;;
22929;SDS011;11630;42.660;23.292;2023-02-26T15:38:13;33.47;;;7.27;;
22929;SDS011;11630;42.660;23.292;2023-02-26T15:40:44;22.33;;;6.77;;
22929;SDS011;11630;42.660;23.292;2023-02-26T15:43:20;24.87;;;6.63;;
22929;SDS011;11630;42.660;23.292;2023-02-26T15:45:50;21.23;;;6.43;;
22929;SDS011;11630;42.660;23.292;2023-02-26T15:48:34;27.10;;;7.33;;
22929;SDS011;11630;42.660;23.292;2023-02-26T15:51:06;29.50;;;6.97;;
22929;SDS011;11630;42.660;23.292;2023-02-26T15:53:42;24.27;;;9.10;;
22929;SDS011;11630;42.660;23.292;2023-02-26T15:56:16;29.07;;;7.63;;
22929;SDS011;11630;42.660;23.292;2023-02-26T15:58:54;27.37;;;7.80;;
22929;SDS011;11630;42.660;23.292;2023-02-26T16:01:37;38.17;;;10.30;;
22929;SDS011;11630;42.660;23.292;2023-02-26T16:04:13;32.57;;;7.70;;
22929;SDS011;11630;42.660;23.292;2023-02-26T16:06:47;26.00;;;8.53;;
22929;SDS011;11630;42.660;23.292;2023-02-26T16:09:29;34.47;;;8.87;;
22929;SDS011;11630;42.660;23.292;2023-02-26T16:12:11;40.10;;;9.10;;
22929;SDS011;11630;42.660;23.292;2023-02-26T16:14:43;31.93;;;9.60;;
22929;SDS011;11630;42.660;23.292;2023-02-26T16:17:14;30.67;;;8.77;;
22929;SDS011;11630;42.660;23.292;2023-02-26T16:19:46;23.30;;;7.60;;
22929;SDS011;11630;42.660;23.292;2023-02-26T16:22:20;22.33;;;7.30;;
22929;SDS011;11630;42.660;23.292;2023-02-26T16:24:53;28.33;;;7.17;;
22929;SDS011;11630;42.660;23.292;2023-02-26T16:27:27;19.93;;;6.73;;
22929;SDS011;11630;42.660;23.292;2023-02-26T16:29:59;28.83;;;8.07;;
22929;SDS011;11630;42.660;23.292;2023-02-26T16:32:32;26.03;;;7.77;;
22929;SDS011;11630;42.660;23.292;2023-02-26T16:35:18;29.67;;;7.30;;
22929;SDS011;11630;42.660;23.292;2023-02-26T16:37:51;23.03;;;6.27;;
22929;SDS011;11630;42.660;23.292;2023-02-26T16:40:23;32.40;;;7.80;;
22929;SDS011;11630;42.660;23.292;2023-02-26T16:48:14;25.77;;;6.50;;
22929;SDS011;11630;42.660;23.292;2023-02-26T16:50:45;17.70;;;4.93;;
22929;SDS011;11630;42.660;23.292;2023-02-26T16:53:17;38.60;;;7.43;;
22929;SDS011;11630;42.660;23.292;2023-02-26T16:55:52;31.80;;;8.40;;
22929;SDS011;11630;42.660;23.292;2023-02-26T16:58:24;29.20;;;7.83;;
22929;SDS011;11630;42.660;23.292;2023-02-26T17:01:05;49.37;;;13.17;;
22929;SDS011;11630;42.660;23.292;2023-02-26T17:03:28;28.33;;;7.20;;
22929;SDS011;11630;42.660;23.292;2023-02-26T17:05:59;19.30;;;6.60;;
22929;SDS011;11630;42.660;23.292;2023-02-26T17:08:49;60.73;;;20.23;;
22929;SDS011;11630;42.660;23.292;2023-02-26T17:11:29;27.67;;;9.80;;
22929;SDS011;11630;42.660;23.292;2023-02-26T17:14:07;41.77;;;7.20;;
22929;SDS011;11630;42.660;23.292;2023-02-26T17:16:49;23.63;;;8.03;;
22929;SDS011;11630;42.660;23.292;2023-02-26T17:19:20;26.40;;;7.90;;
22929;SDS011;11630;42.660;23.292;2023-02-26T17:21:52;25.97;;;7.63;;
22929;SDS011;11630;42.660;23.292;2023-02-26T17:24:33;24.13;;;7.80;;
22929;SDS011;11630;42.660;23.292;2023-02-26T17:27:09;50.00;;;9.73;;
22929;SDS011;11630;42.660;23.292;2023-02-26T17:29:41;37.30;;;7.97;;
22929;SDS011;11630;42.660;23.292;2023-02-26T17:32:17;39.03;;;6.13;;
22929;SDS011;11630;42.660;23.292;2023-02-26T17:34:49;37.70;;;9.10;;
22929;SDS011;11630;42.660;23.292;2023-02-26T17:37:20;28.20;;;7.07;;
22929;SDS011;11630;42.660;23.292;2023-02-26T17:39:53;27.67;;;6.80;;